createdAt,value
2023-04-11T01:34:28.540Z,7.80
2023-04-11T01:36:55.468Z,7.80
2023-04-11T01:39:22.213Z,7.80
2023-04-11T01:41:48.857Z,7.80
2023-04-11T01:44:15.711Z,7.80
2023-04-11T01:46:42.365Z,7.80
2023-04-11T01:49:09.260Z,7.80
2023-04-11T01:51:37.735Z,7.80
2023-04-11T01:54:04.682Z,7.80
2023-04-11T01:56:31.310Z,7.80
2023-04-11T01:58:59.235Z,7.70
2023-04-11T02:01:26.771Z,7.70
2023-04-11T02:03:53.920Z,7.70
2023-04-11T02:06:21.145Z,7.70
2023-04-11T02:08:47.918Z,7.70
2023-04-11T02:11:14.681Z,7.70
2023-04-11T02:13:41.377Z,7.70
2023-04-11T02:16:08.213Z,7.70
2023-04-11T02:18:34.889Z,7.70
2023-04-11T02:21:01.517Z,7.70
2023-04-11T02:23:28.180Z,7.60
2023-04-11T02:25:55.516Z,7.60
2023-04-11T02:28:22.515Z,7.60
2023-04-11T02:30:49.377Z,7.60
2023-04-11T02:33:16.478Z,7.50
2023-04-11T02:35:43.220Z,7.50
2023-04-11T02:38:09.975Z,7.50
2023-04-11T02:40:36.557Z,7.50
2023-04-11T02:43:03.370Z,7.50
2023-04-11T02:45:30.225Z,7.40
2023-04-11T02:47:57.023Z,7.40
2023-04-11T02:50:26.286Z,7.40
2023-04-11T02:52:52.984Z,7.50
2023-04-11T02:55:19.765Z,7.40
2023-04-11T02:57:47.233Z,7.50
2023-04-11T03:00:14.154Z,7.50
2023-04-11T03:02:41.997Z,7.50
2023-04-11T03:05:08.909Z,7.50
2023-04-11T03:07:38.516Z,7.50
2023-04-11T03:10:05.650Z,7.50
2023-04-11T03:12:32.281Z,7.50
2023-04-11T03:14:59.062Z,7.50
2023-04-11T03:17:26.069Z,7.50
2023-04-11T03:19:52.841Z,7.50
2023-04-11T03:22:19.572Z,7.40
2023-04-11T03:24:47.010Z,7.30
2023-04-11T03:27:13.775Z,7.30
2023-04-11T03:29:41.632Z,7.20
2023-04-11T03:32:10.709Z,7.20
2023-04-11T03:34:37.421Z,7.20
2023-04-11T03:37:04.283Z,7.10
2023-04-11T03:39:31.848Z,7.10
2023-04-11T03:41:58.504Z,7.10
2023-04-11T03:44:25.331Z,7.10
2023-04-11T03:46:52.521Z,7.10
2023-04-11T03:49:19.240Z,7.20
2023-04-11T03:51:47.404Z,7.10
2023-04-11T03:54:14.292Z,7.10
2023-04-11T03:56:43.318Z,7.20
2023-04-11T03:59:11.708Z,7.10
2023-04-11T04:01:38.508Z,7.10
2023-04-11T04:04:05.884Z,7.10
2023-04-11T04:06:32.980Z,7.10
2023-04-11T04:09:04.379Z,7.10
2023-04-11T04:11:31.875Z,7.10
2023-04-11T04:13:58.841Z,7.10
2023-04-11T04:19:22.504Z,7.10
2023-04-11T04:21:50.257Z,7.10
2023-04-11T04:24:17.068Z,7.00
2023-04-11T04:26:44.135Z,7.00
2023-04-11T04:29:12.825Z,7.00
2023-04-11T04:31:42.297Z,6.90
2023-04-11T04:34:11.773Z,6.90
2023-04-11T04:36:49.577Z,6.90
2023-04-11T04:39:19.737Z,6.80
2023-04-11T04:41:47.670Z,6.80
2023-04-11T04:46:57.140Z,6.80
2023-04-11T04:49:24.217Z,6.80
2023-04-11T04:54:31.956Z,6.80
2023-04-11T05:02:21.977Z,6.80
2023-04-11T05:10:17.909Z,6.80
2023-04-11T05:12:44.957Z,6.80
2023-04-11T05:15:12.437Z,6.70
2023-04-11T05:17:39.875Z,6.70
2023-04-11T05:20:07.600Z,6.70
2023-04-11T05:22:34.439Z,6.70
2023-04-11T05:27:44.189Z,6.70
2023-04-11T05:30:11.255Z,6.70
2023-04-11T05:32:38.182Z,6.70
2023-04-11T05:35:05.000Z,6.70
2023-04-11T05:37:32.567Z,6.80
2023-04-11T05:40:00.423Z,6.80
2023-04-11T05:42:27.358Z,6.80
2023-04-11T05:44:54.085Z,6.80
2023-04-11T06:09:23.708Z,6.70
2023-04-11T06:11:50.718Z,6.70
2023-04-11T06:19:39.580Z,6.80
2023-04-11T06:24:47.456Z,6.90
2023-04-11T06:27:14.654Z,6.90
2023-04-11T06:29:46.278Z,7.00
2023-04-11T06:32:13.950Z,7.00
2023-04-11T06:34:41.437Z,7.00
2023-04-11T06:37:08.359Z,7.00
2023-04-11T06:39:36.396Z,7.00
2023-04-11T06:42:05.073Z,7.00
2023-04-11T06:44:32.617Z,7.10
2023-04-11T06:47:01.862Z,7.10
2023-04-11T18:34:35.658Z,9.20
2023-04-11T18:37:02.225Z,9.10
2023-04-11T18:39:29.365Z,9.10
2023-04-11T18:41:56.289Z,9.00
2023-04-11T18:44:22.748Z,9.00
2023-04-11T18:46:51.239Z,8.90
2023-04-11T18:49:18.936Z,8.80
2023-04-11T18:51:45.399Z,8.80
2023-04-11T18:54:11.884Z,8.70
2023-04-11T19:19:03.037Z,8.60
2023-04-11T19:21:29.742Z,8.60
2023-04-11T19:23:59.664Z,8.70
2023-04-11T19:26:27.220Z,8.60
2023-04-11T19:28:53.799Z,8.60
2023-04-11T19:31:20.577Z,8.60
2023-04-11T19:33:47.325Z,8.60
2023-04-11T19:36:13.883Z,8.60
2023-04-11T19:38:40.847Z,8.60
2023-04-11T19:41:07.286Z,8.60
2023-04-11T19:43:33.752Z,8.60
2023-04-11T19:46:00.718Z,8.50
2023-04-11T19:48:27.177Z,8.50
2023-04-11T19:50:53.652Z,8.40
2023-04-11T19:53:20.726Z,8.40
2023-04-11T19:55:47.232Z,8.30
2023-04-11T19:58:15.730Z,8.40
2023-04-11T20:00:42.276Z,8.40
2023-04-11T20:03:14.262Z,8.30
2023-04-11T20:05:40.908Z,8.30
2023-04-11T20:08:07.938Z,8.30
2023-04-11T20:10:34.480Z,8.20
2023-04-11T20:13:00.984Z,8.10
2023-04-11T20:15:27.520Z,8.00
2023-04-11T20:17:54.087Z,8.00
2023-04-11T20:20:20.616Z,8.00
2023-04-11T20:22:47.934Z,7.90
2023-04-11T20:25:14.505Z,7.90
2023-04-11T20:27:40.962Z,7.80
2023-04-11T20:30:10.307Z,7.80
2023-04-11T20:32:37.247Z,7.70
2023-04-11T20:35:03.932Z,7.70
2023-04-11T20:37:35.105Z,7.70
2023-04-11T20:40:01.622Z,7.70
2023-04-11T20:42:28.182Z,7.60
2023-04-11T20:44:57.674Z,7.60
2023-04-11T20:47:24.626Z,7.60
2023-04-11T20:49:56.044Z,7.50
2023-04-11T20:52:22.522Z,7.50
2023-04-11T20:54:49.245Z,7.40
2023-04-11T20:57:16.018Z,7.40
2023-04-11T20:59:42.728Z,7.40
2023-04-11T21:02:09.218Z,7.30
2023-04-11T21:04:35.911Z,7.30
2023-04-11T21:07:02.789Z,7.30
2023-04-11T21:09:29.268Z,7.20
2023-04-11T21:11:56.437Z,7.20
2023-04-11T21:14:22.958Z,7.20
2023-04-11T21:16:50.033Z,7.20
2023-04-11T21:19:16.608Z,7.20
2023-04-11T21:21:43.131Z,7.20
2023-04-11T21:24:09.644Z,7.20
2023-04-11T21:26:36.095Z,7.30
2023-04-11T21:29:02.764Z,7.30
2023-04-11T21:31:29.269Z,7.30
2023-04-11T21:33:56.188Z,7.30
2023-04-11T21:36:22.797Z,7.30
2023-04-11T21:38:49.277Z,7.30
2023-04-11T21:41:15.789Z,7.30
2023-04-11T21:43:42.274Z,7.30
2023-04-11T21:46:08.746Z,7.30
2023-04-11T21:48:35.339Z,7.30
2023-04-11T21:51:01.791Z,7.30
2023-04-11T21:53:28.237Z,7.30
2023-04-11T21:55:54.746Z,7.20
2023-04-11T21:58:29.125Z,7.20
2023-04-11T22:00:56.472Z,7.20
2023-04-11T22:03:23.657Z,7.20
2023-04-11T22:05:50.583Z,7.20
2023-04-11T22:08:19.959Z,7.20
2023-04-11T22:10:47.805Z,7.20
2023-04-11T22:13:14.956Z,7.20
2023-04-11T22:15:42.050Z,7.20
2023-04-11T22:18:09.278Z,7.20
2023-04-11T22:20:37.994Z,7.20
2023-04-11T22:23:06.048Z,7.10
2023-04-11T22:25:32.707Z,7.10
2023-04-11T22:27:59.225Z,7.10
2023-04-11T22:30:26.070Z,7.10
2023-04-11T22:32:54.000Z,7.10
2023-04-11T22:35:20.668Z,7.10
2023-04-11T22:37:47.166Z,7.10
2023-04-11T22:40:15.424Z,7.10
2023-04-11T22:42:41.885Z,7.10
2023-04-11T22:45:08.341Z,7.10
2023-04-11T22:47:37.884Z,7.10
2023-04-11T22:50:04.633Z,7.10
2023-04-11T22:52:31.080Z,7.00
2023-04-11T22:54:57.610Z,7.00
2023-04-11T22:57:24.132Z,7.00
2023-04-11T22:59:50.644Z,7.00
2023-04-11T23:02:17.418Z,6.90
2023-04-11T23:04:44.450Z,6.90
2023-04-11T23:07:10.971Z,7.00
2023-04-11T23:09:37.941Z,7.00
2023-04-11T23:12:04.399Z,7.00
2023-04-11T23:14:31.932Z,7.00
2023-04-11T23:16:58.457Z,7.00
2023-04-11T23:19:25.205Z,7.00
2023-04-11T23:21:51.722Z,7.10
2023-04-11T23:24:18.518Z,7.10
2023-04-11T23:26:44.988Z,7.00
2023-04-11T23:29:11.447Z,7.00
2023-04-11T23:31:38.199Z,7.00
2023-04-11T23:34:05.007Z,7.00
2023-04-11T23:36:32.637Z,7.00
2023-04-11T23:39:01.864Z,7.00
2023-04-11T23:41:30.125Z,7.00
2023-04-11T23:43:57.273Z,7.00
2023-04-11T23:46:24.067Z,6.90
2023-04-11T23:48:50.648Z,6.90
2023-04-11T23:51:17.126Z,6.80
2023-04-11T23:53:43.944Z,6.80
2023-04-11T23:56:10.495Z,6.70
2023-04-11T23:58:37.041Z,6.70
